sensor_id;sensor_type;location;lat;lon;timestamp;pressure;altitude;pressure_sealevel;temperature;humidity
18819;BME280;9537;45.594;9.294;2023-02-28T00:00:09;100196.41;;;5.90;70.78
18819;BME280;9537;45.594;9.294;2023-02-28T00:01:11;100193.78;;;5.90;70.93
18819;BME280;9537;45.594;9.294;2023-02-28T00:02:13;100203.44;;;5.90;70.39
18819;BME280;9537;45.594;9.294;2023-02-28T00:03:15;100202.59;;;5.89;70.41
18819;BME280;9537;45.594;9.294;2023-02-28T00:04:17;100199.97;;;5.89;70.80
18819;BME280;9537;45.594;9.294;2023-02-28T00:05:19;100200.94;;;5.88;70.44
18819;BME280;9537;45.594;9.294;2023-02-28T00:06:22;100200.09;;;5.87;70.32
18819;BME280;9537;45.594;9.294;2023-02-28T00:07:24;100203.44;;;5.90;70.20
18819;BME280;9537;45.594;9.294;2023-02-28T00:08:26;100207.00;;;5.88;69.56
18819;BME280;9537;45.594;9.294;2023-02-28T00:09:29;100197.47;;;5.87;69.49
18819;BME280;9537;45.594;9.294;2023-02-28T00:10:31;100207.00;;;5.88;69.18
18819;BME280;9537;45.594;9.294;2023-02-28T00:11:32;100201.75;;;5.88;69.14
18819;BME280;9537;45.594;9.294;2023-02-28T00:12:35;100206.06;;;5.90;68.45
18819;BME280;9537;45.594;9.294;2023-02-28T00:13:39;100205.22;;;5.89;68.26
18819;BME280;9537;45.594;9.294;2023-02-28T00:14:41;100206.06;;;5.90;68.03
18819;BME280;9537;45.594;9.294;2023-02-28T00:15:42;100200.94;;;5.88;67.66
18819;BME280;9537;45.594;9.294;2023-02-28T00:16:45;100208.78;;;5.88;67.58
18819;BME280;9537;45.594;9.294;2023-02-28T00:17:47;100207.97;;;5.87;67.58
18819;BME280;9537;45.594;9.294;2023-02-28T00:18:49;100203.66;;;5.86;67.16
18819;BME280;9537;45.594;9.294;2023-02-28T00:19:51;100201.03;;;5.86;66.98
18819;BME280;9537;45.594;9.294;2023-02-28T00:20:53;100206.28;;;5.86;66.87
18819;BME280;9537;45.594;9.294;2023-02-28T00:21:54;100211.53;;;5.86;67.36
18819;BME280;9537;45.594;9.294;2023-02-28T00:22:57;100207.16;;;5.87;66.66
18819;BME280;9537;45.594;9.294;2023-02-28T00:23:57;100208.91;;;5.86;65.53
18819;BME280;9537;45.594;9.294;2023-02-28T00:25:01;100209.78;;;5.87;65.61
18819;BME280;9537;45.594;9.294;2023-02-28T00:26:02;100213.22;;;5.87;66.29
18819;BME280;9537;45.594;9.294;2023-02-28T00:27:05;100208.78;;;5.88;65.59
18819;BME280;9537;45.594;9.294;2023-02-28T00:28:06;100209.78;;;5.87;65.45
18819;BME280;9537;45.594;9.294;2023-02-28T00:29:08;100203.66;;;5.86;64.74
18819;BME280;9537;45.594;9.294;2023-02-28T00:30:12;100206.19;;;5.88;64.74
18819;BME280;9537;45.594;9.294;2023-02-28T00:31:13;100205.34;;;5.87;63.64
18819;BME280;9537;45.594;9.294;2023-02-28T00:32:15;100207.81;;;5.89;64.28
18819;BME280;9537;45.594;9.294;2023-02-28T00:33:16;100204.38;;;5.88;64.04
18819;BME280;9537;45.594;9.294;2023-02-28T00:34:18;100205.22;;;5.89;64.03
18819;BME280;9537;45.594;9.294;2023-02-28T00:35:19;100208.91;;;5.86;64.11
18819;BME280;9537;45.594;9.294;2023-02-28T00:36:21;100214.16;;;5.86;64.03
18819;BME280;9537;45.594;9.294;2023-02-28T00:37:23;100210.84;;;5.84;63.72
18819;BME280;9537;45.594;9.294;2023-02-28T00:38:25;100209.06;;;5.85;63.97
18819;BME280;9537;45.594;9.294;2023-02-28T00:39:26;100209.88;;;5.85;62.84
18819;BME280;9537;45.594;9.294;2023-02-28T00:40:30;100210.72;;;5.86;63.29
18819;BME280;9537;45.594;9.294;2023-02-28T00:41:31;100211.41;;;5.88;63.00
18819;BME280;9537;45.594;9.294;2023-02-28T00:42:33;100213.31;;;5.86;62.22
18819;BME280;9537;45.594;9.294;2023-02-28T00:43:36;100210.59;;;5.87;61.85
18819;BME280;9537;45.594;9.294;2023-02-28T00:44:38;100209.78;;;5.87;61.71
18819;BME280;9537;45.594;9.294;2023-02-28T00:45:39;100210.84;;;5.84;62.20
18819;BME280;9537;45.594;9.294;2023-02-28T00:46:41;100211.69;;;5.85;62.28
18819;BME280;9537;45.594;9.294;2023-02-28T00:47:42;100209.06;;;5.85;62.59
18819;BME280;9537;45.594;9.294;2023-02-28T00:48:45;100208.91;;;5.86;62.24
18819;BME280;9537;45.594;9.294;2023-02-28T00:49:46;100205.47;;;5.86;62.04
18819;BME280;9537;45.594;9.294;2023-02-28T00:50:48;100205.34;;;5.87;61.40
18819;BME280;9537;45.594;9.294;2023-02-28T00:51:50;100210.59;;;5.87;60.79
18819;BME280;9537;45.594;9.294;2023-02-28T00:52:52;100212.38;;;5.87;60.63
18819;BME280;9537;45.594;9.294;2023-02-28T00:53:53;100211.69;;;5.85;61.01
18819;BME280;9537;45.594;9.294;2023-02-28T00:54:55;100210.84;;;5.84;61.06
18819;BME280;9537;45.594;9.294;2023-02-28T00:55:57;100213.47;;;5.84;60.87
18819;BME280;9537;45.594;9.294;2023-02-28T00:57:00;100212.66;;;5.84;61.49
18819;BME280;9537;45.594;9.294;2023-02-28T00:58:01;100209.16;;;5.83;61.57
18819;BME280;9537;45.594;9.294;2023-02-28T00:59:03;100214.56;;;5.82;61.58
18819;BME280;9537;45.594;9.294;2023-02-28T01:00:05;100218.00;;;5.82;61.27
18819;BME280;9537;45.594;9.294;2023-02-28T01:01:08;100216.34;;;5.81;61.39
18819;BME280;9537;45.594;9.294;2023-02-28T01:02:09;100213.59;;;5.83;60.94
18819;BME280;9537;45.594;9.294;2023-02-28T01:03:11;100218.00;;;5.82;60.87
18819;BME280;9537;45.594;9.294;2023-02-28T01:04:13;100220.50;;;5.84;60.46
18819;BME280;9537;45.594;9.294;2023-02-28T01:05:15;100222.03;;;5.86;59.64
18819;BME280;9537;45.594;9.294;2023-02-28T01:06:16;100219.53;;;5.85;60.33
18819;BME280;9537;45.594;9.294;2023-02-28T01:07:18;100217.91;;;5.84;60.15
18819;BME280;9537;45.594;9.294;2023-02-28T01:08:19;100222.28;;;5.83;60.36
18819;BME280;9537;45.594;9.294;2023-02-28T01:09:21;100219.66;;;5.83;59.43
18819;BME280;9537;45.594;9.294;2023-02-28T01:10:22;100230.41;;;5.80;59.91
18819;BME280;9537;45.594;9.294;2023-02-28T01:11:26;100218.97;;;5.81;60.66
18819;BME280;9537;45.594;9.294;2023-02-28T01:12:27;100225.03;;;5.82;60.48
18819;BME280;9537;45.594;9.294;2023-02-28T01:13:29;100220.78;;;5.81;59.84
18819;BME280;9537;45.594;9.294;2023-02-28T01:14:30;100227.53;;;5.83;60.22
18819;BME280;9537;45.594;9.294;2023-02-28T01:15:32;100218.84;;;5.83;59.96
18819;BME280;9537;45.594;9.294;2023-02-28T01:16:33;100228.38;;;5.84;60.16
18819;BME280;9537;45.594;9.294;2023-02-28T01:17:36;100225.16;;;5.80;59.51
18819;BME280;9537;45.594;9.294;2023-02-28T01:18:37;100228.75;;;5.79;59.91
18819;BME280;9537;45.594;9.294;2023-02-28T01:19:40;100229.31;;;5.83;59.47
18819;BME280;9537;45.594;9.294;2023-02-28T01:20:41;100237.31;;;5.81;59.03
18819;BME280;9537;45.594;9.294;2023-02-28T01:21:43;100221.59;;;5.81;59.57
18819;BME280;9537;45.594;9.294;2023-02-28T01:22:44;100225.88;;;5.82;59.73
18819;BME280;9537;45.594;9.294;2023-02-28T01:23:47;100227.66;;;5.82;60.19
18819;BME280;9537;45.594;9.294;2023-02-28T01:24:48;100230.28;;;5.82;60.03
18819;BME280;9537;45.594;9.294;2023-02-28T01:25:50;100234.97;;;5.78;60.46
18819;BME280;9537;45.594;9.294;2023-02-28T01:26:52;100223.50;;;5.79;60.43
18819;BME280;9537;45.594;9.294;2023-02-28T01:27:54;100227.94;;;5.79;61.07
18819;BME280;9537;45.594;9.294;2023-02-28T01:32:37;100229.84;;;5.77;61.32
18819;BME280;9537;45.594;9.294;2023-02-28T01:33:39;100226.25;;;5.78;61.53
18819;BME280;9537;45.594;9.294;2023-02-28T01:34:41;100226.38;;;5.76;61.11
18819;BME280;9537;45.594;9.294;2023-02-28T01:35:42;100234.25;;;5.76;61.59
18819;BME280;9537;45.594;9.294;2023-02-28T01:36:44;100229.38;;;5.72;62.28
18819;BME280;9537;45.594;9.294;2023-02-28T01:37:46;100235.44;;;5.72;62.35
18819;BME280;9537;45.594;9.294;2023-02-28T01:38:48;100235.44;;;5.72;62.14
18819;BME280;9537;45.594;9.294;2023-02-28T01:39:50;100230.34;;;5.71;63.24
18819;BME280;9537;45.594;9.294;2023-02-28T01:40:52;100236.16;;;5.74;63.17
18819;BME280;9537;45.594;9.294;2023-02-28T01:41:55;100238.06;;;5.72;63.02
18819;BME280;9537;45.594;9.294;2023-02-28T01:42:57;100234.50;;;5.73;62.49
18819;BME280;9537;45.594;9.294;2023-02-28T01:44:01;100233.78;;;5.71;62.29
18819;BME280;9537;45.594;9.294;2023-02-28T01:45:18;100236.41;;;5.71;63.23
18819;BME280;9537;45.594;9.294;2023-02-28T01:46:19;100233.09;;;5.69;63.06
18819;BME280;9537;45.594;9.294;2023-02-28T01:47:22;100232.72;;;5.74;63.67
18819;BME280;9537;45.594;9.294;2023-02-28T01:48:27;100225.66;;;5.74;62.99
18819;BME280;9537;45.594;9.294;2023-02-28T01:49:31;100232.72;;;5.74;62.92
18819;BME280;9537;45.594;9.294;2023-02-28T01:50:36;100232.00;;;5.72;63.16
18819;BME280;9537;45.594;9.294;2023-02-28T01:51:41;100226.75;;;5.72;63.64
18819;BME280;9537;45.594;9.294;2023-02-28T01:52:46;100232.25;;;5.69;63.15
18819;BME280;9537;45.594;9.294;2023-02-28T01:53:52;100234.75;;;5.70;62.32
18819;BME280;9537;45.594;9.294;2023-02-28T01:54:56;100227.00;;;5.69;61.72
18819;BME280;9537;45.594;9.294;2023-02-28T01:56:04;100223.72;;;5.67;61.55
18819;BME280;9537;45.594;9.294;2023-02-28T01:57:11;100226.06;;;5.70;61.69
18819;BME280;9537;45.594;9.294;2023-02-28T01:58:14;100217.34;;;5.69;62.80
18819;BME280;9537;45.594;9.294;2023-02-28T01:59:21;100227.00;;;5.69;63.78
18819;BME280;9537;45.594;9.294;2023-02-28T02:00:26;100220.13;;;5.68;64.13
18819;BME280;9537;45.594;9.294;2023-02-28T02:01:28;100219.41;;;5.65;64.49
18819;BME280;9537;45.594;9.294;2023-02-28T02:02:31;100214.16;;;5.65;64.68
18819;BME280;9537;45.594;9.294;2023-02-28T02:03:35;100217.88;;;5.63;66.17
18819;BME280;9537;45.594;9.294;2023-02-28T02:04:41;100214.31;;;5.64;64.47
18819;BME280;9537;45.594;9.294;2023-02-28T02:05:46;100212.88;;;5.60;64.18
18819;BME280;9537;45.594;9.294;2023-02-28T02:06:49;100220.88;;;5.58;63.76
18819;BME280;9537;45.594;9.294;2023-02-28T02:07:52;100213.03;;;5.58;64.91
18819;BME280;9537;45.594;9.294;2023-02-28T02:08:56;100216.47;;;5.59;65.14
18819;BME280;9537;45.594;9.294;2023-02-28T02:10:00;100214.69;;;5.59;65.22
18819;BME280;9537;45.594;9.294;2023-02-28T02:11:03;100218.28;;;5.58;64.46
18819;BME280;9537;45.594;9.294;2023-02-28T02:12:13;100216.22;;;5.62;64.08
18819;BME280;9537;45.594;9.294;2023-02-28T02:14:57;100213.84;;;5.59;64.94
18819;BME280;9537;45.594;9.294;2023-02-28T02:16:11;100214.78;;;5.58;65.20
18819;BME280;9537;45.594;9.294;2023-02-28T02:17:23;100217.41;;;5.58;65.92
18819;BME280;9537;45.594;9.294;2023-02-28T02:18:34;100214.09;;;5.56;66.31
18819;BME280;9537;45.594;9.294;2023-02-28T02:22:02;100215.91;;;5.55;66.31
18819;BME280;9537;45.594;9.294;2023-02-28T02:23:49;100218.06;;;5.50;65.36
18819;BME280;9537;45.594;9.294;2023-02-28T02:25:12;100213.66;;;5.51;64.83
18819;BME280;9537;45.594;9.294;2023-02-28T02:29:41;100212.69;;;5.52;64.63
18819;BME280;9537;45.594;9.294;2023-02-28T02:31:14;100218.06;;;5.50;65.28
18819;BME280;9537;45.594;9.294;2023-02-28T02:32:52;100218.88;;;5.51;64.83
18819;BME280;9537;45.594;9.294;2023-02-28T02:34:10;100218.78;;;5.52;65.59
18819;BME280;9537;45.594;9.294;2023-02-28T02:35:23;100216.84;;;5.54;65.57
18819;BME280;9537;45.594;9.294;2023-02-28T02:36:30;100220.44;;;5.53;65.74
18819;BME280;9537;45.594;9.294;2023-02-28T02:37:38;100223.88;;;5.54;66.49
18819;BME280;9537;45.594;9.294;2023-02-28T02:38:47;100218.63;;;5.54;66.64
18819;BME280;9537;45.594;9.294;2023-02-28T02:39:54;100220.81;;;5.49;66.11
18819;BME280;9537;45.594;9.294;2023-02-28T02:41:07;100220.81;;;5.49;65.62
18819;BME280;9537;45.594;9.294;2023-02-28T02:42:13;100228.66;;;5.49;64.67
18819;BME280;9537;45.594;9.294;2023-02-28T02:43:20;100227.00;;;5.48;64.59
18819;BME280;9537;45.594;9.294;2023-02-28T02:44:27;100218.44;;;5.46;63.70
18819;BME280;9537;45.594;9.294;2023-02-28T02:45:35;100222.03;;;5.45;63.56
18819;BME280;9537;45.594;9.294;2023-02-28T02:46:41;100222.84;;;5.45;63.38
18819;BME280;9537;45.594;9.294;2023-02-28T02:47:45;100226.28;;;5.46;63.18
18819;BME280;9537;45.594;9.294;2023-02-28T02:48:47;100228.91;;;5.46;62.72
18819;BME280;9537;45.594;9.294;2023-02-28T02:49:52;100228.34;;;5.42;62.69
18819;BME280;9537;45.594;9.294;2023-02-28T02:50:57;100229.31;;;5.41;62.88
18819;BME280;9537;45.594;9.294;2023-02-28T02:52:03;100231.06;;;5.40;62.91
18819;BME280;9537;45.594;9.294;2023-02-28T02:53:07;100231.78;;;5.42;63.23
18819;BME280;9537;45.594;9.294;2023-02-28T02:54:14;100230.00;;;5.43;63.19
18819;BME280;9537;45.594;9.294;2023-02-28T02:55:17;100233.44;;;5.43;62.66
18819;BME280;9537;45.594;9.294;2023-02-28T02:56:24;100228.19;;;5.43;62.90
18819;BME280;9537;45.594;9.294;2023-02-28T02:57:31;100232.63;;;5.43;62.78
18819;BME280;9537;45.594;9.294;2023-02-28T02:58:38;100234.28;;;5.44;63.51
18819;BME280;9537;45.594;9.294;2023-02-28T02:59:44;100229.06;;;5.44;62.67
18819;BME280;9537;45.594;9.294;2023-02-28T03:00:48;100229.88;;;5.45;63.02
18819;BME280;9537;45.594;9.294;2023-02-28T03:01:54;100230.00;;;5.43;63.21
18819;BME280;9537;45.594;9.294;2023-02-28T03:02:57;100235.47;;;5.40;63.27
18819;BME280;9537;45.594;9.294;2023-02-28T03:04:01;100228.44;;;5.40;63.05
18819;BME280;9537;45.594;9.294;2023-02-28T03:05:09;100227.50;;;5.41;63.08
18819;BME280;9537;45.594;9.294;2023-02-28T03:06:15;100224.91;;;5.41;63.34
18819;BME280;9537;45.594;9.294;2023-02-28T03:07:17;100224.75;;;5.43;63.18
18819;BME280;9537;45.594;9.294;2023-02-28T03:08:18;100227.38;;;5.43;63.63
18819;BME280;9537;45.594;9.294;2023-02-28T03:09:20;100222.84;;;5.45;63.25
18819;BME280;9537;45.594;9.294;2023-02-28T03:10:35;100229.88;;;5.45;62.63
18819;BME280;9537;45.594;9.294;2023-02-28T03:11:38;100222.84;;;5.45;63.04
18819;BME280;9537;45.594;9.294;2023-02-28T03:12:46;100229.88;;;5.45;63.44
18819;BME280;9537;45.594;9.294;2023-02-28T03:14:01;100230.81;;;5.43;63.67
18819;BME280;9537;45.594;9.294;2023-02-28T03:15:12;100229.06;;;5.44;63.83
18819;BME280;9537;45.594;9.294;2023-02-28T03:16:33;100235.94;;;5.45;63.44
18819;BME280;9537;45.594;9.294;2023-02-28T03:17:47;100238.81;;;5.42;64.00
18819;BME280;9537;45.594;9.294;2023-02-28T03:19:09;100230.00;;;5.43;64.93
18819;BME280;9537;45.594;9.294;2023-02-28T03:20:22;100233.44;;;5.43;65.17
18819;BME280;9537;45.594;9.294;2023-02-28T03:21:34;100231.69;;;5.44;65.47
18819;BME280;9537;45.594;9.294;2023-02-28T03:22:45;100227.50;;;5.41;65.96
18819;BME280;9537;45.594;9.294;2023-02-28T03:23:56;100232.88;;;5.40;66.21
18819;BME280;9537;45.594;9.294;2023-02-28T03:25:06;100236.56;;;5.37;65.79
18819;BME280;9537;45.594;9.294;2023-02-28T03:26:15;100231.22;;;5.39;65.63
18819;BME280;9537;45.594;9.294;2023-02-28T03:27:24;100235.63;;;5.38;66.05
18819;BME280;9537;45.594;9.294;2023-02-28T03:28:32;100240.88;;;5.38;66.08
18819;BME280;9537;45.594;9.294;2023-02-28T03:29:42;100235.88;;;5.35;65.94
18819;BME280;9537;45.594;9.294;2023-02-28T03:30:48;100235.16;;;5.33;66.25
18819;BME280;9537;45.594;9.294;2023-02-28T03:31:56;100235.28;;;5.32;66.17
18819;BME280;9537;45.594;9.294;2023-02-28T03:33:03;100237.91;;;5.32;66.22
18819;BME280;9537;45.594;9.294;2023-02-28T03:34:10;100238.75;;;5.32;66.11
18819;BME280;9537;45.594;9.294;2023-02-28T03:35:19;100231.72;;;5.33;66.06
18819;BME280;9537;45.594;9.294;2023-02-28T03:36:25;100240.50;;;5.32;65.65
18819;BME280;9537;45.594;9.294;2023-02-28T03:37:29;100236.25;;;5.31;64.92
18819;BME280;9537;45.594;9.294;2023-02-28T03:38:34;100241.72;;;5.28;65.00
18819;BME280;9537;45.594;9.294;2023-02-28T03:39:41;100238.28;;;5.27;64.57
18819;BME280;9537;45.594;9.294;2023-02-28T03:40:48;100233.03;;;5.27;63.85
18819;BME280;9537;45.594;9.294;2023-02-28T03:41:56;100238.97;;;5.29;64.13
18819;BME280;9537;45.594;9.294;2023-02-28T03:43:03;100237.31;;;5.28;63.83
18819;BME280;9537;45.594;9.294;2023-02-28T03:44:10;100237.47;;;5.27;64.57
18819;BME280;9537;45.594;9.294;2023-02-28T03:45:18;100242.56;;;5.28;64.56
18819;BME280;9537;45.594;9.294;2023-02-28T03:46:25;100236.59;;;5.26;64.58
18819;BME280;9537;45.594;9.294;2023-02-28T03:47:32;100239.09;;;5.28;64.62
18819;BME280;9537;45.594;9.294;2023-02-28T03:48:40;100238.16;;;5.29;64.00
18819;BME280;9537;45.594;9.294;2023-02-28T03:49:47;100238.03;;;5.30;64.37
18819;BME280;9537;45.594;9.294;2023-02-28T03:50:54;100232.78;;;5.30;64.40
18819;BME280;9537;45.594;9.294;2023-02-28T03:52:01;100243.13;;;5.32;64.55
18819;BME280;9537;45.594;9.294;2023-02-28T03:53:13;100240.66;;;5.30;64.31
18819;BME280;9537;45.594;9.294;2023-02-28T03:54:19;100240.50;;;5.32;64.81
18819;BME280;9537;45.594;9.294;2023-02-28T03:55:22;100242.06;;;5.34;64.51
18819;BME280;9537;45.594;9.294;2023-02-28T03:56:27;100240.50;;;5.32;64.49
18819;BME280;9537;45.594;9.294;2023-02-28T03:57:34;100244.00;;;5.32;64.22
18819;BME280;9537;45.594;9.294;2023-02-28T03:58:42;100237.06;;;5.31;64.90
18819;BME280;9537;45.594;9.294;2023-02-28T03:59:47;100249.44;;;5.29;64.63
18819;BME280;9537;45.594;9.294;2023-02-28T04:00:56;100238.16;;;5.29;64.33
18819;BME280;9537;45.594;9.294;2023-02-28T04:02:00;100242.56;;;5.28;64.91
18819;BME280;9537;45.594;9.294;2023-02-28T04:03:02;100251.25;;;5.29;64.62
18819;BME280;9537;45.594;9.294;2023-02-28T04:04:03;100243.38;;;5.29;64.96
18819;BME280;9537;45.594;9.294;2023-02-28T04:05:07;100250.31;;;5.30;64.63
18819;BME280;9537;45.594;9.294;2023-02-28T04:06:17;100239.94;;;5.28;64.91
18819;BME280;9537;45.594;9.294;2023-02-28T04:07:19;100249.59;;;5.28;64.53
18819;BME280;9537;45.594;9.294;2023-02-28T04:08:21;100252.06;;;5.29;65.42
18819;BME280;9537;45.594;9.294;2023-02-28T04:09:24;100245.19;;;5.28;65.74
18819;BME280;9537;45.594;9.294;2023-02-28T04:10:24;100246.25;;;5.26;66.13
18819;BME280;9537;45.594;9.294;2023-02-28T04:11:31;100249.69;;;5.26;65.64
18819;BME280;9537;45.594;9.294;2023-02-28T04:12:33;100244.59;;;5.25;64.97
18819;BME280;9537;45.594;9.294;2023-02-28T04:13:35;100248.03;;;5.25;64.76
18819;BME280;9537;45.594;9.294;2023-02-28T04:14:36;100246.41;;;5.24;64.74
18819;BME280;9537;45.594;9.294;2023-02-28T04:15:38;100246.41;;;5.24;64.44
18819;BME280;9537;45.594;9.294;2023-02-28T04:16:41;100250.81;;;5.24;64.53
18819;BME280;9537;45.594;9.294;2023-02-28T04:17:43;100243.78;;;5.24;64.70
18819;BME280;9537;45.594;9.294;2023-02-28T04:18:44;100248.03;;;5.25;65.31
18819;BME280;9537;45.594;9.294;2023-02-28T04:19:46;100250.66;;;5.25;65.54
18819;BME280;9537;45.594;9.294;2023-02-28T04:20:48;100249.94;;;5.23;66.44
18819;BME280;9537;45.594;9.294;2023-02-28T04:21:52;100250.91;;;5.22;66.79
18819;BME280;9537;45.594;9.294;2023-02-28T04:22:54;100256.25;;;5.20;66.27
18819;BME280;9537;45.594;9.294;2023-02-28T04:23:55;100259.03;;;5.19;66.40
18819;BME280;9537;45.594;9.294;2023-02-28T04:25:01;100255.44;;;5.20;66.70
18819;BME280;9537;45.594;9.294;2023-02-28T04:26:03;100255.44;;;5.20;66.92
18819;BME280;9537;45.594;9.294;2023-02-28T04:27:04;100254.50;;;5.21;67.71
18819;BME280;9537;45.594;9.294;2023-02-28T04:28:06;100259.13;;;5.17;67.80
18819;BME280;9537;45.594;9.294;2023-02-28T04:29:07;100258.19;;;5.18;67.25
18819;BME280;9537;45.594;9.294;2023-02-28T04:30:10;100258.06;;;5.20;67.16
18819;BME280;9537;45.594;9.294;2023-02-28T04:31:11;100254.59;;;5.19;67.08
18819;BME280;9537;45.594;9.294;2023-02-28T04:32:14;100252.00;;;5.19;67.47
18819;BME280;9537;45.594;9.294;2023-02-28T04:33:14;100255.56;;;5.18;67.15
18819;BME280;9537;45.594;9.294;2023-02-28T04:34:16;100255.81;;;5.15;68.33
18819;BME280;9537;45.594;9.294;2023-02-28T04:35:19;100255.81;;;5.15;68.37
18819;BME280;9537;45.594;9.294;2023-02-28T04:36:21;100256.66;;;5.16;67.89
18819;BME280;9537;45.594;9.294;2023-02-28T04:37:25;100253.31;;;5.14;67.51
18819;BME280;9537;45.594;9.294;2023-02-28T04:38:29;100257.72;;;5.13;66.81
18819;BME280;9537;45.594;9.294;2023-02-28T04:39:35;100249.97;;;5.12;66.48
18819;BME280;9537;45.594;9.294;2023-02-28T04:40:37;100251.78;;;5.11;66.44
18819;BME280;9537;45.594;9.294;2023-02-28T04:41:38;100256.19;;;5.11;66.70
18819;BME280;9537;45.594;9.294;2023-02-28T04:42:40;100256.19;;;5.11;66.62
18819;BME280;9537;45.594;9.294;2023-02-28T04:43:41;100252.16;;;5.07;67.17
18819;BME280;9537;45.594;9.294;2023-02-28T04:44:43;100252.84;;;5.09;66.92
18819;BME280;9537;45.594;9.294;2023-02-28T04:45:45;100261.78;;;5.06;67.03
18819;BME280;9537;45.594;9.294;2023-02-28T04:46:47;100257.41;;;5.07;67.05
18819;BME280;9537;45.594;9.294;2023-02-28T04:47:50;100251.31;;;5.06;67.22
18819;BME280;9537;45.594;9.294;2023-02-28T04:48:51;100256.53;;;5.06;67.17
18819;BME280;9537;45.594;9.294;2023-02-28T04:49:54;100254.06;;;5.05;67.73
18819;BME280;9537;45.594;9.294;2023-02-28T04:50:55;100256.34;;;4.98;68.60
18819;BME280;9537;45.594;9.294;2023-02-28T04:51:57;100259.78;;;4.99;68.53
18819;BME280;9537;45.594;9.294;2023-02-28T04:52:59;100253.47;;;5.01;69.42
18819;BME280;9537;45.594;9.294;2023-02-28T04:54:01;100254.41;;;5.00;69.10
18819;BME280;9537;45.594;9.294;2023-02-28T04:55:03;100255.97;;;5.03;68.79
18819;BME280;9537;45.594;9.294;2023-02-28T04:56:07;100255.03;;;5.04;68.70
18819;BME280;9537;45.594;9.294;2023-02-28T04:57:08;100254.16;;;5.03;68.72
18819;BME280;9537;45.594;9.294;2023-02-28T04:58:10;100260.25;;;5.04;68.37
18819;BME280;9537;45.594;9.294;2023-02-28T04:59:11;100263.56;;;5.06;68.33
18819;BME280;9537;45.594;9.294;2023-02-28T05:00:13;100255.03;;;5.04;67.82
18819;BME280;9537;45.594;9.294;2023-02-28T05:01:21;100259.28;;;5.05;68.46
18819;BME280;9537;45.594;9.294;2023-02-28T05:02:23;100259.28;;;5.05;68.14
18819;BME280;9537;45.594;9.294;2023-02-28T05:03:24;100255.72;;;5.06;68.51
18819;BME280;9537;45.594;9.294;2023-02-28T05:04:26;100260.13;;;5.05;67.71
18819;BME280;9537;45.594;9.294;2023-02-28T05:05:27;100259.28;;;5.05;68.27
18819;BME280;9537;45.594;9.294;2023-02-28T05:06:31;100256.91;;;5.02;67.85
18819;BME280;9537;45.594;9.294;2023-02-28T05:07:32;100266.31;;;5.04;67.79
18819;BME280;9537;45.594;9.294;2023-02-28T05:08:36;100263.09;;;5.01;67.71
18819;BME280;9537;45.594;9.294;2023-02-28T05:09:37;100264.78;;;5.02;67.50
18819;BME280;9537;45.594;9.294;2023-02-28T05:10:39;100269.06;;;5.03;67.97
18819;BME280;9537;45.594;9.294;2023-02-28T05:11:41;100270.00;;;5.02;67.76
18819;BME280;9537;45.594;9.294;2023-02-28T05:12:43;100269.88;;;5.03;68.20
18819;BME280;9537;45.594;9.294;2023-02-28T05:13:45;100267.25;;;5.03;68.07
18819;BME280;9537;45.594;9.294;2023-02-28T05:14:47;100263.56;;;5.06;67.80
18819;BME280;9537;45.594;9.294;2023-02-28T05:15:48;100272.25;;;5.06;68.05
18819;BME280;9537;45.594;9.294;2023-02-28T05:16:50;100271.81;;;5.01;68.04
18819;BME280;9537;45.594;9.294;2023-02-28T05:17:52;100274.41;;;5.01;68.20
18819;BME280;9537;45.594;9.294;2023-02-28T05:18:54;100271.81;;;5.01;67.61
18819;BME280;9537;45.594;9.294;2023-02-28T05:19:55;100278.34;;;4.95;68.51
18819;BME280;9537;45.594;9.294;2023-02-28T05:20:57;100275.59;;;4.97;69.00
18819;BME280;9537;45.594;9.294;2023-02-28T05:21:58;100275.50;;;4.99;68.62
18819;BME280;9537;45.594;9.294;2023-02-28T05:23:01;100283.47;;;4.97;69.64
18819;BME280;9537;45.594;9.294;2023-02-28T05:24:05;100273.81;;;4.97;70.69
18819;BME280;9537;45.594;9.294;2023-02-28T05:25:10;100275.25;;;5.02;70.54
18819;BME280;9537;45.594;9.294;2023-02-28T05:26:13;100278.81;;;5.01;70.72
18819;BME280;9537;45.594;9.294;2023-02-28T05:27:15;100281.66;;;4.97;70.42
18819;BME280;9537;45.594;9.294;2023-02-28T05:28:16;100284.91;;;5.01;70.43
18819;BME280;9537;45.594;9.294;2023-02-28T05:29:18;100280.50;;;5.02;70.37
18819;BME280;9537;45.594;9.294;2023-02-28T05:30:20;100283.22;;;5.00;70.26
18819;BME280;9537;45.594;9.294;2023-02-28T05:31:22;100279.66;;;5.01;70.53
18819;BME280;9537;45.594;9.294;2023-02-28T05:32:23;100282.38;;;5.00;70.46
18819;BME280;9537;45.594;9.294;2023-02-28T05:33:26;100284.91;;;5.01;70.98
18819;BME280;9537;45.594;9.294;2023-02-28T05:34:27;100278.94;;;4.99;71.07
18819;BME280;9537;45.594;9.294;2023-02-28T05:35:31;100284.28;;;4.97;70.71
18819;BME280;9537;45.594;9.294;2023-02-28T05:36:36;100272.75;;;5.00;71.22
18819;BME280;9537;45.594;9.294;2023-02-28T05:37:39;100280.72;;;4.99;71.26
18819;BME280;9537;45.594;9.294;2023-02-28T05:38:40;100275.50;;;4.99;71.13
18819;BME280;9537;45.594;9.294;2023-02-28T05:39:43;100275.50;;;4.99;71.13
18819;BME280;9537;45.594;9.294;2023-02-28T05:40:44;100276.44;;;4.97;71.02
18819;BME280;9537;45.594;9.294;2023-02-28T05:41:46;100272.88;;;4.99;71.39
18819;BME280;9537;45.594;9.294;2023-02-28T05:42:49;100278.22;;;4.97;70.82
18819;BME280;9537;45.594;9.294;2023-02-28T05:43:52;100280.97;;;4.95;71.30
18819;BME280;9537;45.594;9.294;2023-02-28T05:44:53;100280.00;;;4.96;71.19
18819;BME280;9537;45.594;9.294;2023-02-28T05:45:55;100277.50;;;4.95;71.46
18819;BME280;9537;45.594;9.294;2023-02-28T05:46:56;100267.75;;;4.97;71.79
18819;BME280;9537;45.594;9.294;2023-02-28T05:47:58;100275.59;;;4.97;71.79
18819;BME280;9537;45.594;9.294;2023-02-28T05:48:59;100277.50;;;4.95;72.34
18819;BME280;9537;45.594;9.294;2023-02-28T05:50:01;100271.09;;;4.99;72.25
18819;BME280;9537;45.594;9.294;2023-02-28T05:51:03;100265.13;;;4.97;72.56
18819;BME280;9537;45.594;9.294;2023-02-28T05:52:05;100265.97;;;4.97;72.41
18819;BME280;9537;45.594;9.294;2023-02-28T05:53:06;100268.56;;;4.97;72.30
18819;BME280;9537;45.594;9.294;2023-02-28T05:54:08;100270.38;;;4.97;72.89
18819;BME280;9537;45.594;9.294;2023-02-28T05:55:11;100270.50;;;4.95;72.64